Briefing drone pour Vichy (LFLV)

Rechercher une autre localisation

Conditions de vol :


Nous sommes le : Jeudi 07 juillet 2022
Il est 07:00 UTC (09:00 LT)

Lever de soleil : 03:37 UTC (05:37 LT)
Coucher de soleil : 20:05 UTC (22:05 LT)

Météo

L'essentiel des conditions de vol

VIGILANCE MÉTÉO FRANCE - Allier (03)
Pas de vigilances particulieres
CARTES DES FRONTS
METAR de LFLV
LFLV 070630Z AUTO 17006KT CAVOK 15/11 Q1025

Date d'émission: 07/07/2022
Heure d'émission: 06:30 UTC
Vent: 170° pour 6 KT (11 km/h)
Visibilité horizontale: > 10 km
Plafond : Plafond et visibilité OK (CAVOK)
Température: 15 °C
Point de rosée: 11 °C
Humidité: 77%
Pression (QNH): 1025 hPa
Prévision 24h pour Vichy
Vent : 293° pour 1 KT (2 km/h)
Temperature Maxi: 11 °C
Temperature Min: 11 °C
Humidité : 98%
Condition : Peu nuageux



Warning: count(): Parameter must be an array or an object that implements Countable in /homepages/6/d509196549/htdocs/droneoxygene/briefing.php on line 743
WEBCAM POUR VICHY

Réglementation

Voler en sécurité

CARTES AERONAUTIQUE 1/500.000
CARTES VAC (LFLV)
SUP AIP




Chargement des AIP...
NOTAM (VICHY + Terrain à proximité / FIR )




Chargement des NOTAMS...
CONTACT PREFECTURE 03


Avertissement : Les données mises à disposition sont indicatives. Oxygène Drone ne pourra être tenu responsable de dégâts causés aux biens et aux personnes.